This is the latest recevied weather packets stored in our database for station/object MMMX. If no packets are shown the sender has not sent any weather packets the latest 10 day(s).
| Time | Temp. | Humidity | Pressure | Rain* | Wind** | Luminosity | Snow |
|---|---|---|---|---|---|---|---|
| 1777755826 | 30° C | 19% | 1021.3 hPa | - | - | - | - |
| 1777755225 | 28.89° C | 20% | 1021.3 hPa | - | - | - | - |
| 1777752828 | 26.67° C | 22% | 1022.7 hPa | - | - | - | - |
| 1777752225 | 26.67° C | 22% | 1022.7 hPa | - | - | - | - |
| 1777751626 | 25.56° C | 24% | 1023.7 hPa | - | - | - | - |
| 1777748626 | 25.56° C | 24% | 1023.7 hPa | - | - | - | - |
| 1777746826 | 25° C | 25% | 1024.7 hPa | - | - | - | - |
| 1777745026 | 25° C | 25% | 1024.7 hPa | - | - | - | - |
| 1777743225 | 23.89° C | 29% | 1025.4 hPa | - | - | - | - |
| 1777740829 | 22.78° C | 33% | 1025.7 hPa | - | - | - | - |
| 1777737828 | 22.78° C | 33% | 1025.7 hPa | - | - | - | - |
| 1777737351 | 20.56° C | 40% | 1025.7 hPa | - | - | - | - |
| 1777736028 | 20.56° C | 40% | 1025.7 hPa | - | - | - | - |
| 1777735423 | 20.56° C | 40% | 1025.7 hPa | - | - | - | - |
| 1777734825 | 20.56° C | 40% | 1025.7 hPa | - | - | - | - |
| 1777734224 | 20.56° C | 40% | 1025.7 hPa | - | - | - | - |
| 1777733625 | 18.89° C | 45% | 1025.1 hPa | - | - | - | - |
| 1777733024 | 18.89° C | 45% | 1025.1 hPa | - | - | - | - |
| 1777732427 | 18.89° C | 45% | 1025.1 hPa | - | - | - | - |
| 1777731824 | 18.89° C | 45% | 1025.1 hPa | - | - | - | - |
| 1777731224 | 18.89° C | 45% | 1025.1 hPa | - | - | - | - |
| 1777730627 | 18.89° C | 45% | 1025.1 hPa | - | - | - | - |
| 1777730027 | 16.67° C | 51% | 1024.4 hPa | - | - | - | - |
| 1777728828 | 16.67° C | 51% | 1024.4 hPa | - | - | - | - |
| 1777728227 | 16.67° C | 51% | 1024.4 hPa | - | - | - | - |
* Rain since midnight (hover to see other rain measurements)
** Current wind speed in m/s (hover to see current wind gust speed)